CheckWX is a tool to help pilots better visualize weather data.  It is not intended as a substitute for an official pre-flight weather briefing.

17:27:17 UTC

CYPE TAF
Peace River Airport
Peace River, Canada
TAF CYPE 181238Z 1813/1901 22006KT P6SM SCT060 BKN180 BECMG 1813/1815 24015G25KT RMK NXT FCST BY 181900Z

Jun-18@
13:00 UTC

Jun-18 @ 13:00 UTC

Jun-19@
01:00 UTC

Jun-19 @ 01:00 UTC

TAF CYPE 181238Z 1813/1901 22006KT P6SM SCT060 BKN180
Wind
  • 220° at 6 KTS
Cloud Levels
  • Scattered at 6,000' AGL
  • Broken at 18,000' AGL

Jun-18@
13:00 UTC

Jun-18 @ 13:00 UTC

Jun-19@
01:00 UTC

Jun-19 @ 01:00 UTC

BECMG 1813/1815 24015G25KT RMK NXT FCST BY 181900Z

Becoming

Becoming Conditions expected by Tue, Jun 18, 2019 @ 15:00 UTC

Wind
  • 240° at 15 KTS
  • {Gusting to 25 KTS
Cloud Levels
  • Scattered at 6,000' AGL
  • Broken at 18,000' AGL